Latest Weather Observations for Sydney Airport

IDN60801

Issued at 1:35 pm EST Friday 25 July 2014 (issued every 30 minutes, with the page automatically refreshed every 10 minutes)

About weather observations | Map of weather stations | Latest weather observations for NSW | Other Formats
Station Details ID: 066037 Name: SYDNEY AIRPORT AMO Lat: -33.95 Lon: 151.17 Height: 6.0 m
Data from the previous 72 hours. | See also: Recent months at Sydney Airport
Date/Time
EST
Temp
°C
App
Temp
°C
Dew
Point
Rel
Hum
%
Delta-T
°C
Wind Press
QNH
hPa
Press
MSL
hPa
Rain
since 9 am
mm
Dir
 
Spd
km/h
Gust
km/h
Spd
kts
Gust
kts
25/01:30pm 19.5 14.3 10.2 55 5.0 N 28 35 15 19 1019.6 - 0.4
25/01:00pm 18.8 15.2 10.4 58 4.5 NNW 20 28 11 15 1019.8 1019.8 0.4
25/12:30pm 17.5 15.4 11.0 65 3.5 NNW 13 17 7 9 1020.5 - 0.4
25/12:00pm 15.9 13.8 11.2 73 2.5 NW 13 17 7 9 1021.0 1021.0 0.4
25/11:30am 15.6 12.6 10.7 72 2.6 NNW 17 24 9 13 1020.8 - 0.4
25/11:00am 14.0 11.3 10.5 79 1.8 N 15 19 8 10 1021.9 1021.9 0.4
25/10:30am 12.9 9.3 10.0 82 1.5 N 19 24 10 13 1022.5 - 0.4
25/10:00am 11.8 7.8 9.2 84 1.3 W 20 32 11 17 1023.1 1023.1 0.4
25/09:30am 11.2 8.2 9.2 87 1.0 NNW 15 20 8 11 1023.1 - 0.2
25/09:00am 11.4 8.5 8.1 80 1.6 NNW 13 15 7 8 1023.0 1023.0 0.0
25/08:30am 12.0 8.7 7.9 76 2.0 NNW 15 19 8 10 1022.2 - 0.0
25/08:00am 12.1 9.1 7.5 73 2.2 NW 13 17 7 9 1021.9 1021.9 0.0
25/07:30am 10.0 6.2 7.7 86 1.1 WNW 17 19 9 10 1021.8 - 0.0
25/07:00am 10.0 6.6 7.5 84 1.2 NW 15 19 8 10 1021.6 1021.6 0.0
25/06:30am 9.9 7.3 7.6 85 1.1 NNW 11 17 6 9 1021.0 - 0.0
25/06:00am 9.7 7.4 7.6 87 1.0 N 9 11 5 6 1020.5 1020.5 0.0
25/05:30am 10.0 7.3 7.5 84 1.2 NNW 11 11 6 6 1020.3 - 0.0
25/05:00am 9.6 7.3 7.5 87 1.0 N 9 11 5 6 1020.0 1020.0 0.0
25/04:30am 9.8 7.6 7.7 87 1.0 NNW 9 11 5 6 1020.1 - 0.0
25/04:00am 10.2 8.1 8.1 87 1.0 NNW 9 9 5 5 1019.9 1019.9 0.0
25/03:30am 10.5 8.3 8.0 84 1.2 NNW 9 11 5 6 1019.9 - 0.0
25/03:00am 10.6 8.9 8.3 86 1.1 NNW 7 9 4 5 1020.1 1020.1 0.0
25/02:30am 10.7 8.6 8.2 84 1.2 NW 9 11 5 6 1020.0 - 0.0
25/02:00am 11.3 8.8 8.4 82 1.4 NNW 11 11 6 6 1020.0 1020.0 0.0
25/01:30am 12.3 10.3 8.5 77 1.9 N 9 11 5 6 1019.9 - 0.0
25/01:00am 12.0 9.3 8.8 81 1.6 N 13 13 7 7 1019.7 1019.7 0.0
25/12:30am 12.7 10.8 9.1 79 1.8 NW 9 19 5 10 1019.8 - 0.0
25/12:00am 12.9 11.3 8.7 75 2.1 NNE 7 7 4 4 1019.9 1019.9 0.0
 
Date/Time
EST
Temp
°C
App
Temp
°C
Dew
Point
Rel
Hum
%
Delta-T
°C
Wind Press
QNH
hPa
Press
MSL
hPa
Rain
since 9 am
mm
Dir
 
Spd
km/h
Gust
km/h
Spd
kts
Gust
kts
24/11:30pm 12.6 10.9 8.3 75 2.1 N 7 9 4 5 1020.3 - 0.0
24/11:00pm 13.0 11.1 9.0 77 2.0 W 9 11 5 6 1020.7 1020.7 0.0
24/10:30pm 14.1 11.9 9.2 72 2.5 WNW 11 15 6 8 1020.8 - 0.0
24/10:00pm 15.3 13.3 8.8 65 3.3 N 9 13 5 7 1020.7 1020.7 0.0
24/09:30pm 15.7 13.7 8.6 62 3.6 N 9 13 5 7 1020.8 - 0.0
24/09:00pm 16.1 13.6 8.2 59 4.0 N 11 13 6 7 1020.6 1020.6 0.0
24/08:30pm 16.2 13.2 7.6 56 4.3 NNE 13 15 7 8 1020.5 - 0.0
24/08:00pm 16.0 13.0 7.6 57 4.2 N 13 17 7 9 1020.3 1020.3 0.0
24/07:30pm 15.9 12.1 7.7 58 4.1 N 17 19 9 10 1020.0 - 0.0
24/07:00pm 16.7 12.9 7.7 55 4.5 N 17 20 9 11 1019.8 1019.8 0.0
24/06:30pm 17.1 12.9 7.5 53 4.8 N 19 24 10 13 1019.7 - 0.0
24/06:00pm 17.2 13.8 7.6 53 4.8 N 15 17 8 9 1019.5 1019.5 0.0
24/05:30pm 17.6 14.5 7.2 50 5.2 N 13 15 7 8 1019.3 - 0.0
24/05:00pm 18.1 14.2 6.9 48 5.6 N 17 19 9 10 1019.1 1019.1 0.0
24/04:30pm 18.3 13.8 6.3 45 5.9 N 19 24 10 13 1019.0 - 0.0
24/04:00pm 18.7 14.8 7.2 47 5.8 N 17 22 9 12 1019.0 1019.0 0.0
24/03:30pm 19.3 15.2 6.4 43 6.4 N 17 22 9 12 1018.8 - 0.0
24/03:00pm 19.5 16.0 7.0 44 6.3 N 15 19 8 10 1018.8 1018.8 0.0
24/02:30pm 19.1 15.6 7.2 46 6.0 NE 15 19 8 10 1018.8 - 0.0
24/02:00pm 17.2 15.3 7.7 53 4.8 NE 7 9 4 5 1019.3 1019.3 0.0
24/01:30pm 17.2 15.2 8.6 57 4.4 N 9 13 5 7 1019.7 - 0.0
24/01:00pm 16.2 13.8 8.5 60 3.9 W 11 15 6 8 1020.3 1020.3 0.0
24/12:30pm 15.1 13.2 9.2 68 3.0 WNW 9 11 5 6 1020.6 - 0.0
24/12:00pm 15.9 13.5 8.8 62 3.6 NW 11 13 6 7 1021.1 1021.1 0.0
24/11:30am 16.0 14.1 9.2 64 3.5 W 9 17 5 9 1021.6 - 0.0
24/11:00am 15.3 12.9 8.6 64 3.4 W 11 15 6 8 1022.1 1022.1 0.0
24/10:30am 14.9 12.5 8.5 65 3.2 NW 11 17 6 9 1022.6 - 0.0
24/10:00am 14.4 11.6 8.6 68 2.9 WNW 13 19 7 10 1022.6 1022.6 0.0
24/09:30am 14.3 11.1 8.3 67 3.0 NW 15 19 8 10 1022.6 - 0.0
24/09:00am 13.8 11.7 8.1 68 2.8 NNW 9 11 5 6 1022.3 1022.3 0.0
24/08:30am 12.1 9.5 7.8 75 2.1 NNW 11 13 6 7 1022.2 - 0.0
24/08:00am 11.1 8.4 7.3 77 1.8 N 11 13 6 7 1022.1 1022.1 0.0
24/07:30am 10.6 8.2 6.8 77 1.8 NNW 9 13 5 7 1022.2 - 0.0
24/07:00am 9.6 6.8 6.8 83 1.3 NNW 11 17 6 9 1021.9 1021.9 0.0
24/06:30am 9.8 7.3 6.6 80 1.5 NNW 9 11 5 6 1021.6 - 0.0
24/06:00am 8.7 5.4 6.5 86 1.0 NW 13 13 7 7 1021.4 1021.4 0.0
24/05:30am 8.6 5.7 6.6 87 0.9 NNW 11 13 6 7 1021.2 - 0.0
24/05:00am 8.4 5.2 6.7 89 0.8 N 13 13 7 7 1021.0 1021.0 0.0
24/04:30am 8.8 6.4 7.1 89 0.8 NW 9 11 5 6 1021.0 - 0.0
24/04:00am 8.6 5.5 7.3 91 0.6 NNW 13 15 7 8 1020.9 1020.9 0.0
24/03:30am 9.1 6.4 7.4 89 0.8 NNW 11 13 6 7 1020.9 - 0.0
24/03:00am 9.1 6.4 7.4 89 0.8 NNW 11 13 6 7 1021.2 1021.2 0.0
24/02:30am 9.4 6.8 7.7 89 0.8 N 11 11 6 6 1021.3 - 0.0
24/02:00am 9.7 7.1 7.8 88 0.9 N 11 13 6 7 1021.4 1021.4 0.0
24/01:30am 10.4 7.9 8.1 86 1.1 N 11 11 6 6 1021.8 - 0.0
24/01:00am 10.4 7.5 8.1 86 1.1 NNW 13 15 7 8 1022.0 1022.0 0.0
24/12:30am 10.9 8.0 8.0 82 1.4 N 13 15 7 8 1022.1 - 0.0
24/12:00am 10.7 8.9 8.0 83 1.3 N 7 9 4 5 1022.3 1022.3 0.0
 
Date/Time
EST
Temp
°C
App
Temp
°C
Dew
Point
Rel
Hum
%
Delta-T
°C
Wind Press
QNH
hPa
Press
MSL
hPa
Rain
since 9 am
mm
Dir
 
Spd
km/h
Gust
km/h
Spd
kts
Gust
kts
23/11:30pm 11.2 8.7 8.1 81 1.5 NW 11 13 6 7 1022.6 - 0.0
23/11:00pm 11.2 9.3 9.0 86 1.1 W 9 11 5 6 1022.5 1022.5 0.0
23/10:30pm 11.9 9.6 8.9 82 1.5 WNW 11 17 6 9 1022.8 - 0.0
23/10:00pm 13.4 11.5 9.2 76 2.1 NW 9 13 5 7 1023.0 1023.0 0.0
23/09:30pm 14.1 12.9 9.4 73 2.4 N 6 7 3 4 1023.1 - 0.0
23/09:00pm 14.2 12.8 9.5 73 2.4 N 7 9 4 5 1023.0 1023.0 0.0
23/08:30pm 14.6 14.1 9.3 70 2.7 NE 2 6 1 3 1022.7 - 0.0
23/08:00pm 14.1 12.3 9.6 74 2.3 ENE 9 11 5 6 1022.7 1022.7 0.0
23/07:30pm 14.1 11.9 9.2 72 2.5 ENE 11 13 6 7 1022.5 - 0.0
23/07:00pm 14.6 12.3 8.9 68 2.9 ENE 11 13 6 7 1022.3 1022.3 0.0
23/06:30pm 14.5 11.8 9.0 69 2.8 E 13 15 7 8 1022.3 - 0.0
23/06:00pm 14.5 12.2 9.0 69 2.8 E 11 13 6 7 1022.3 1022.3 0.0
23/05:30pm 14.4 11.7 8.9 69 2.8 E 13 15 7 8 1022.0 - 0.0
23/05:00pm 14.8 12.0 8.7 67 3.1 E 13 15 7 8 1021.8 1021.8 0.0
23/04:30pm 15.2 12.0 8.4 64 3.4 E 15 17 8 9 1021.7 - 0.0
23/04:00pm 15.7 12.4 7.9 59 3.9 E 15 19 8 10 1021.6 1021.6 0.0
23/03:30pm 16.6 13.2 7.8 56 4.4 ESE 15 19 8 10 1021.6 - 0.0
23/03:00pm 16.9 14.0 8.0 55 4.5 ESE 13 17 7 9 1021.5 1021.5 0.0
23/02:30pm 15.9 12.6 8.1 60 3.9 SE 15 19 8 10 1021.6 - 0.0
23/02:00pm 15.9 12.8 7.4 57 4.2 SE 13 17 7 9 1021.8 1021.8 0.0
23/01:30pm 16.6 13.6 7.6 55 4.5 ESE 13 17 7 9 1022.1 - 0.0
23/01:00pm 15.9 13.3 7.7 58 4.1 SSE 11 13 6 7 1022.5 1022.5 0.0
23/12:30pm 14.9 12.9 10.1 73 2.5 SSE 11 15 6 8 1023.0 - 0.0
23/12:00pm 15.9 13.6 9.1 64 3.5 SSE 11 13 6 7 1023.6 1023.6 0.0
23/11:30am 15.1 13.6 9.2 68 3.0 SSW 7 11 4 6 1024.4 - 0.0
23/11:00am 15.5 13.7 9.5 67 3.1 W 9 17 5 9 1024.9 1024.9 0.0
23/10:30am 16.0 14.1 9.2 64 3.5 WNW 9 13 5 7 1025.3 - 0.0
23/10:00am 15.1 12.7 8.5 64 3.3 NW 11 17 6 9 1025.5 1025.5 0.0
23/09:30am 13.8 11.7 8.4 70 2.7 NNW 9 15 5 8 1025.5 - 0.0
23/09:00am 13.6 10.8 8.4 71 2.6 NW 13 17 7 9 1025.4 1025.4 0.0
23/08:30am 12.3 9.7 7.8 74 2.2 NW 11 15 6 8 1025.1 - 0.0
23/08:00am 10.4 7.3 7.2 80 1.5 NNW 13 17 7 9 1025.0 1025.0 0.0
23/07:30am 10.6 8.2 7.2 79 1.6 N 9 13 5 7 1024.8 - 0.0
23/07:00am 9.9 6.8 7.4 84 1.2 NW 13 15 7 8 1024.4 1024.4 0.0
23/06:30am 9.4 6.7 7.5 88 0.9 NNW 11 13 6 7 1024.0 - 0.0
23/06:00am 9.2 6.2 7.5 89 0.8 NNW 13 13 7 7 1023.8 1023.8 0.0
23/05:30am 9.7 7.5 7.8 88 0.9 NNW 9 11 5 6 1023.4 - 0.0
23/05:00am 9.5 7.0 8.0 90 0.7 NNW 11 13 6 7 1023.2 1023.2 0.0
23/04:30am 9.3 6.7 7.8 90 0.7 NW 11 15 6 8 1023.2 - 0.0
23/04:00am 9.4 6.5 8.1 92 0.6 NW 13 15 7 8 1023.0 1023.0 0.0
23/03:30am 9.6 6.8 8.4 92 0.6 NNW 13 13 7 7 1023.1 - 0.0
23/03:00am 10.0 7.5 8.3 89 0.8 N 11 13 6 7 1023.5 1023.5 0.0
23/02:30am 10.3 7.2 8.7 90 0.8 N 15 15 8 8 1023.7 - 0.0
23/02:00am 10.9 9.3 8.9 87 1.0 N 7 9 4 5 1023.6 1023.6 0.0
23/01:30am 11.1 9.8 9.3 89 0.9 N 6 7 3 4 1023.8 - 0.0
23/01:00am 11.8 10.0 9.4 85 1.2 N 9 9 5 5 1023.7 1023.7 0.0
23/12:30am 11.8 9.9 9.2 84 1.3 W 9 11 5 6 1023.8 - 0.0
23/12:00am 11.1 10.8 8.7 85 1.2 CALM 0 0 0 0 1024.0 1024.0 0.0
 
Date/Time
EST
Temp
°C
App
Temp
°C
Dew
Point
Rel
Hum
%
Delta-T
°C
Wind Press
QNH
hPa
Press
MSL
hPa
Rain
since 9 am
mm
Dir
 
Spd
km/h
Gust
km/h
Spd
kts
Gust
kts
22/11:30pm 11.3 8.8 8.4 82 1.4 NNW 11 11 6 6 1024.0 - 0.0
22/11:00pm 12.2 9.8 8.8 80 1.7 WNW 11 13 6 7 1024.1 1024.1 0.0
22/10:30pm 12.4 10.9 9.2 81 1.6 W 7 9 4 5 1024.1 - 0.0
22/10:00pm 13.0 10.8 9.4 79 1.8 W 11 13 6 7 1024.0 1024.0 0.0
22/09:30pm 12.8 11.0 9.6 81 1.6 SW 9 13 5 7 1023.9 - 0.0
22/09:00pm 12.7 12.0 10.2 85 1.3 SSE 4 7 2 4 1023.9 1023.9 0.0
22/08:30pm 13.1 10.8 10.6 85 1.3 SE 13 13 7 7 1024.1 - 0.0
22/08:00pm 14.1 11.6 9.6 74 2.3 SSE 13 13 7 7 1024.3 1024.3 0.0
22/07:30pm 13.9 11.4 9.8 76 2.1 SE 13 15 7 8 1024.0 - 0.0
22/07:00pm 14.6 12.4 9.3 70 2.7 SE 11 13 6 7 1023.7 1023.7 0.0
22/06:30pm 14.4 11.4 9.3 71 2.6 SE 15 17 8 9 1023.4 - 0.0
22/06:00pm 14.9 11.9 9.2 68 2.9 SE 15 17 8 9 1023.2 1023.2 0.0
22/05:30pm 14.5 11.6 9.8 73 2.4 SE 15 17 8 9 1022.9 - 0.0
22/05:00pm 15.3 12.4 9.5 68 3.0 SE 15 17 8 9 1022.7 1022.7 0.0
22/04:30pm 15.6 12.7 9.8 68 3.0 SE 15 17 8 9 1022.5 - 0.0
22/04:00pm 16.1 13.6 9.7 66 3.3 SSE 13 17 7 9 1022.5 1022.5 0.0
22/03:30pm 16.3 13.4 9.8 65 3.4 SE 15 17 8 9 1022.4 - 0.0
22/03:00pm 15.6 13.1 11.1 74 2.4 SSE 15 19 8 10 1022.3 1022.3 0.0
22/02:30pm 15.9 12.9 10.8 71 2.7 S 17 19 9 10 1022.2 - 0.0
22/02:00pm 15.6 12.2 10.7 72 2.6 S 19 24 10 13 1022.2 1022.2 0.0

Other Formats:

Comma delimited format used in spreadsheet applications
http://www.bom.gov.au/fwo/IDN60801/IDN60801.94767.axf

JavaScript Object Notation format (JSON) in row-major order
http://www.bom.gov.au/fwo/IDN60801/IDN60801.94767.json